createdAt,value
2023-04-16T00:01:50.212Z,13.68
2023-04-16T00:04:20.756Z,13.65
2023-04-16T00:06:53.549Z,13.62
2023-04-16T00:09:24.199Z,13.57
2023-04-16T00:11:54.404Z,13.51
2023-04-16T00:14:24.709Z,13.43
2023-04-16T00:16:55.504Z,13.33
2023-04-16T00:19:26.853Z,13.23
2023-04-16T00:21:57.242Z,13.10
2023-04-16T00:24:27.770Z,12.98
2023-04-16T00:26:58.886Z,12.87
2023-04-16T00:29:30.841Z,12.78
2023-04-16T00:32:01.298Z,12.70
2023-04-16T00:34:32.028Z,12.63
2023-04-16T00:37:02.356Z,12.57
2023-04-16T00:39:32.678Z,12.50
2023-04-16T00:42:02.941Z,12.46
2023-04-16T00:44:35.790Z,12.44
2023-04-16T00:47:08.597Z,12.39
2023-04-16T00:49:39.345Z,12.33
2023-04-16T00:52:10.041Z,12.28
2023-04-16T00:54:41.244Z,12.25
2023-04-16T00:57:12.131Z,12.23
2023-04-16T00:59:43.174Z,12.19
2023-04-16T01:02:14.264Z,12.13
2023-04-16T01:04:44.682Z,12.07
2023-04-16T01:07:14.890Z,12.05
2023-04-16T01:09:45.075Z,12.02
2023-04-16T01:12:15.418Z,11.98
2023-04-16T01:14:48.162Z,11.96
2023-04-16T01:17:18.769Z,11.93
2023-04-16T01:19:48.932Z,11.91
2023-04-16T01:22:19.082Z,11.91
2023-04-16T01:24:49.225Z,11.91
2023-04-16T01:27:19.899Z,11.91
2023-04-16T01:29:50.285Z,11.91
2023-04-16T01:32:23.907Z,11.92
2023-04-16T01:34:54.071Z,11.91
2023-04-16T01:37:24.225Z,11.94
2023-04-16T01:39:54.570Z,11.94
2023-04-16T01:42:25.036Z,11.92
2023-04-16T01:44:55.235Z,11.92
2023-04-16T01:47:25.540Z,11.92
2023-04-16T01:49:55.913Z,11.93
2023-04-16T01:52:26.288Z,11.92
2023-04-16T01:54:57.372Z,11.92
2023-04-16T01:57:27.599Z,11.90
2023-04-16T01:59:58.201Z,11.89
2023-04-16T02:02:28.944Z,11.88
2023-04-16T02:04:59.912Z,11.85
2023-04-16T02:07:31.354Z,11.84
2023-04-16T02:10:01.581Z,11.83
2023-04-16T02:12:32.081Z,11.81
2023-04-16T02:15:03.333Z,11.79
2023-04-16T02:17:33.712Z,11.76
2023-04-16T02:20:06.210Z,11.72
2023-04-16T02:22:36.732Z,11.67
2023-04-16T02:25:08.818Z,11.64
2023-04-16T02:27:39.236Z,11.61
2023-04-16T02:30:12.009Z,11.60
2023-04-16T02:32:42.724Z,11.58
2023-04-16T02:35:15.896Z,11.59
2023-04-16T02:37:46.513Z,11.58
2023-04-16T02:40:17.574Z,11.56
2023-04-16T02:42:47.784Z,11.55
2023-04-16T02:45:19.184Z,11.55
2023-04-16T02:47:50.743Z,11.53
2023-04-16T02:50:21.359Z,11.49
2023-04-16T02:52:52.348Z,11.46
2023-04-16T02:55:22.577Z,11.45
2023-04-16T02:57:54.021Z,11.45
2023-04-16T03:00:25.311Z,11.50
2023-04-16T03:02:55.886Z,11.59
2023-04-16T03:05:27.185Z,11.69
2023-04-16T03:07:57.336Z,11.85
2023-04-16T03:10:28.414Z,12.18
2023-04-16T03:12:59.193Z,12.66
2023-04-16T03:15:30.351Z,13.67
2023-04-16T03:18:01.401Z,14.78
2023-04-16T03:20:31.953Z,15.90
2023-04-16T03:23:02.347Z,17.01
2023-04-16T03:25:32.896Z,18.04
2023-04-16T03:28:03.608Z,19.04
2023-04-16T03:30:35.981Z,20.05
2023-04-16T03:33:06.613Z,20.98
2023-04-16T03:35:36.764Z,21.90
2023-04-16T03:38:07.612Z,22.85
2023-04-16T03:40:38.100Z,23.84
2023-04-16T03:43:08.283Z,24.80
2023-04-16T03:45:39.018Z,25.61
2023-04-16T03:48:09.932Z,26.30
2023-04-16T03:50:40.219Z,26.86
2023-04-16T03:53:10.575Z,27.53
2023-04-16T03:55:40.988Z,28.15
2023-04-16T03:58:11.404Z,28.75
2023-04-16T04:00:44.510Z,29.48
2023-04-16T04:03:16.830Z,30.08
2023-04-16T04:05:47.474Z,30.68
2023-04-16T04:08:18.112Z,31.53
2023-04-16T04:10:48.826Z,32.21
2023-04-16T04:13:19.039Z,32.76
2023-04-16T04:15:49.493Z,33.24
2023-04-16T04:18:20.116Z,33.60
2023-04-16T04:20:50.487Z,33.34
2023-04-16T04:23:20.898Z,32.84
2023-04-16T04:25:51.195Z,32.95
2023-04-16T04:28:22.405Z,33.03
2023-04-16T04:30:52.707Z,32.81
2023-04-16T04:33:23.135Z,32.72
2023-04-16T04:35:53.743Z,32.61
2023-04-16T04:38:25.074Z,32.70
2023-04-16T04:40:55.536Z,33.21
2023-04-16T04:43:25.935Z,34.24
2023-04-16T04:45:56.205Z,35.21
2023-04-16T04:48:27.386Z,35.95
2023-04-16T04:50:57.919Z,36.66
2023-04-16T04:53:28.434Z,36.95
2023-04-16T04:56:10.977Z,36.88
2023-04-16T04:58:43.954Z,37.36
2023-04-16T05:01:14.611Z,37.10
2023-04-16T05:03:50.848Z,36.66
2023-04-16T05:06:21.398Z,36.10
2023-04-16T05:08:51.812Z,35.78
2023-04-16T05:11:22.266Z,35.86
2023-04-16T05:13:52.493Z,36.08
2023-04-16T05:16:23.134Z,36.71
2023-04-16T05:18:55.897Z,37.45
2023-04-16T05:21:26.743Z,38.33
2023-04-16T05:23:57.474Z,38.99
2023-04-16T05:26:28.393Z,39.01
2023-04-16T05:28:58.673Z,39.17
2023-04-16T05:31:29.629Z,39.87
2023-04-16T05:34:00.818Z,40.54
2023-04-16T05:36:31.062Z,41.02
2023-04-16T05:39:01.255Z,40.91
2023-04-16T05:41:32.006Z,40.44
2023-04-16T05:44:02.297Z,40.48
2023-04-16T05:46:32.768Z,41.21
2023-04-16T05:49:03.364Z,42.10
2023-04-16T05:51:33.751Z,42.96
2023-04-16T05:54:04.283Z,43.58
2023-04-16T05:56:34.755Z,43.96
2023-04-16T05:59:05.334Z,44.41
2023-04-16T06:01:35.688Z,44.81
2023-04-16T06:04:06.582Z,44.95
2023-04-16T06:06:37.236Z,44.97
2023-04-16T06:09:09.571Z,45.28
2023-04-16T06:11:40.151Z,45.52
2023-04-16T06:14:12.546Z,45.85
2023-04-16T06:16:43.501Z,46.06
2023-04-16T06:19:14.247Z,45.85
2023-04-16T06:21:44.989Z,45.93
2023-04-16T06:24:15.614Z,46.13
2023-04-16T06:26:47.159Z,46.26
2023-04-16T06:29:17.658Z,46.54
2023-04-16T06:31:48.907Z,46.54
2023-04-16T06:34:21.036Z,46.38
2023-04-16T06:36:52.814Z,46.03
2023-04-16T06:39:23.496Z,45.98
2023-04-16T06:41:54.403Z,45.64
2023-04-16T06:44:25.166Z,45.61
2023-04-16T06:46:55.765Z,45.40
2023-04-16T06:49:26.497Z,44.58
2023-04-16T06:51:57.045Z,44.77
2023-04-16T06:54:28.343Z,44.87
2023-04-16T06:57:00.250Z,45.21
2023-04-16T06:59:31.085Z,45.32
2023-04-16T07:02:02.405Z,44.88
2023-04-16T07:04:41.120Z,44.63
2023-04-16T07:07:22.124Z,44.84
2023-04-16T07:10:18.672Z,44.28
2023-04-16T07:12:49.648Z,44.09
2023-04-16T07:15:32.867Z,44.19
2023-04-16T07:18:03.730Z,44.06
2023-04-16T07:20:34.260Z,43.97
2023-04-16T07:23:05.076Z,43.94
2023-04-16T07:25:35.591Z,44.25
2023-04-16T07:28:06.211Z,44.55
2023-04-16T07:30:36.734Z,44.62
2023-04-16T07:33:07.808Z,44.60
2023-04-16T07:35:38.245Z,44.54
2023-04-16T07:38:11.484Z,44.71
2023-04-16T07:40:44.730Z,44.58
2023-04-16T07:43:16.074Z,44.23
2023-04-16T07:45:46.783Z,43.91
2023-04-16T07:48:19.455Z,43.46
2023-04-16T07:50:50.039Z,43.28
2023-04-16T07:53:24.460Z,43.28
2023-04-16T07:55:54.719Z,43.35
2023-04-16T07:58:25.968Z,43.13
2023-04-16T08:00:57.858Z,42.68
2023-04-16T08:03:29.407Z,41.85
2023-04-16T08:06:01.100Z,40.19
2023-04-16T08:08:31.813Z,37.95
2023-04-16T08:11:03.722Z,35.87
2023-04-16T08:13:36.055Z,33.98
2023-04-16T08:16:08.156Z,32.18
2023-04-16T08:18:41.065Z,30.39
2023-04-16T08:21:12.642Z,29.04
2023-04-16T08:23:43.333Z,27.92
2023-04-16T08:26:13.687Z,26.97
2023-04-16T08:28:46.283Z,26.17
2023-04-16T08:31:17.021Z,25.56
2023-04-16T08:33:48.120Z,25.06
2023-04-16T08:36:19.004Z,24.65
2023-04-16T08:38:53.116Z,24.24
2023-04-16T08:41:24.219Z,23.93
2023-04-16T08:43:57.695Z,23.68
2023-04-16T08:46:29.482Z,23.54
2023-04-16T08:49:01.797Z,23.33
2023-04-16T08:54:31.663Z,22.78
2023-04-16T08:57:02.123Z,22.69
2023-04-16T08:59:32.700Z,22.53
2023-04-16T09:02:06.961Z,22.39
2023-04-16T09:04:38.623Z,22.37
2023-04-16T09:07:09.982Z,22.38
2023-04-16T09:09:41.581Z,22.28
2023-04-16T09:12:12.451Z,22.11
2023-04-16T09:14:44.180Z,22.04
2023-04-16T09:17:14.891Z,22.09
2023-04-16T09:19:45.963Z,22.06
2023-04-16T09:22:17.188Z,22.08
2023-04-16T09:24:47.806Z,22.07
2023-04-16T09:27:19.116Z,22.07
2023-04-16T09:29:49.884Z,22.10
2023-04-16T09:32:27.074Z,22.03
2023-04-16T09:34:58.855Z,21.95
2023-04-16T09:37:31.010Z,21.88
2023-04-16T09:40:03.975Z,21.81
2023-04-16T09:42:37.654Z,21.58
2023-04-16T09:45:09.904Z,21.57
2023-04-16T09:47:45.213Z,21.68
2023-04-16T09:50:18.581Z,21.84
2023-04-16T09:52:51.658Z,21.86
2023-04-16T09:55:27.792Z,21.93
2023-04-16T09:58:04.505Z,21.96
2023-04-16T10:00:35.456Z,21.96
2023-04-16T10:03:14.300Z,21.94
2023-04-16T10:05:45.106Z,21.83
2023-04-16T10:08:16.166Z,21.76
2023-04-16T10:10:47.147Z,21.73
2023-04-16T10:13:19.775Z,21.80
2023-04-16T10:15:51.903Z,22.03
2023-04-16T10:18:22.540Z,22.12
2023-04-16T10:20:53.178Z,22.08
2023-04-16T10:23:26.288Z,22.07
2023-04-16T10:25:57.810Z,22.14
2023-04-16T10:28:29.154Z,22.27
2023-04-16T10:31:00.546Z,22.32
2023-04-16T10:33:33.184Z,22.38
2023-04-16T10:36:11.261Z,22.50
2023-04-16T10:38:42.364Z,22.55
2023-04-16T10:41:12.915Z,22.50
2023-04-16T10:43:46.011Z,22.44
2023-04-16T10:46:24.831Z,22.39
2023-04-16T10:48:57.325Z,22.20
2023-04-16T10:51:31.850Z,21.98
2023-04-16T10:54:20.712Z,21.88
2023-04-16T10:56:51.801Z,21.86
2023-04-16T10:59:24.112Z,21.95
2023-04-16T11:01:55.902Z,21.97
2023-04-16T11:04:37.173Z,21.89
2023-04-16T11:07:16.089Z,21.67
2023-04-16T11:09:53.255Z,21.62
2023-04-16T11:12:26.946Z,21.58
2023-04-16T11:15:03.393Z,21.43
2023-04-16T11:17:39.938Z,21.28
2023-04-16T11:20:19.942Z,21.11
2023-04-16T11:22:52.049Z,20.97
2023-04-16T11:25:22.583Z,20.88
2023-04-16T11:27:53.499Z,20.83
2023-04-16T11:30:31.418Z,20.80
2023-04-16T11:33:04.424Z,20.72
2023-04-16T11:35:34.991Z,20.54
2023-04-16T11:38:07.015Z,20.34
2023-04-16T11:40:37.674Z,20.16
2023-04-16T11:43:15.563Z,20.12
2023-04-16T11:45:58.501Z,20.06
2023-04-16T11:48:48.043Z,19.97
2023-04-16T11:51:18.887Z,19.94
2023-04-16T11:53:52.559Z,19.89
2023-04-16T11:56:30.579Z,19.92
2023-04-16T11:59:14.827Z,19.90
2023-04-16T12:01:48.460Z,19.90
2023-04-16T12:04:19.927Z,19.86
2023-04-16T12:07:10.213Z,19.90
2023-04-16T12:09:41.835Z,19.96
2023-04-16T12:12:30.348Z,19.95
2023-04-16T12:15:03.252Z,19.86
2023-04-16T12:17:35.282Z,19.83
2023-04-16T12:20:09.719Z,19.85
2023-04-16T12:22:42.874Z,19.91
2023-04-16T12:25:14.585Z,20.01
2023-04-16T12:27:49.495Z,20.05
2023-04-16T12:30:25.977Z,20.04
2023-04-16T12:33:16.370Z,19.98
2023-04-16T12:35:46.820Z,19.90
2023-04-16T12:38:17.393Z,19.80
2023-04-16T12:40:48.185Z,19.69
2023-04-16T12:43:19.508Z,19.62
2023-04-16T12:45:51.214Z,19.55
2023-04-16T12:48:21.732Z,19.46
2023-04-16T12:50:54.557Z,19.36
2023-04-16T12:53:25.350Z,19.27
2023-04-16T12:55:55.991Z,19.20
2023-04-16T12:58:26.790Z,19.20
2023-04-16T13:00:57.294Z,19.21
2023-04-16T13:03:28.197Z,19.12
2023-04-16T13:05:59.134Z,19.01
2023-04-16T13:08:29.937Z,18.89
2023-04-16T13:11:00.759Z,18.76
2023-04-16T13:13:31.248Z,18.69
2023-04-16T13:16:03.806Z,18.63
2023-04-16T13:18:36.600Z,18.60
2023-04-16T13:21:09.673Z,18.56
2023-04-16T13:23:40.275Z,18.49
2023-04-16T13:26:12.945Z,18.39
2023-04-16T13:28:43.689Z,18.33
2023-04-16T13:31:15.515Z,18.23
2023-04-16T13:33:46.230Z,18.11
2023-04-16T13:36:17.412Z,17.96
2023-04-16T13:38:47.875Z,17.78
2023-04-16T13:41:18.657Z,17.65
2023-04-16T13:43:49.455Z,17.58
2023-04-16T13:46:22.780Z,17.57
2023-04-16T13:48:53.745Z,17.56
2023-04-16T13:51:24.175Z,17.54
2023-04-16T13:53:55.977Z,17.52
2023-04-16T13:56:26.880Z,17.48
2023-04-16T13:58:57.418Z,17.42
2023-04-16T14:01:28.952Z,17.38
2023-04-16T14:04:01.702Z,17.35
2023-04-16T14:06:33.034Z,17.33
2023-04-16T14:09:04.683Z,17.26
2023-04-16T14:11:35.264Z,17.13
2023-04-16T14:14:05.855Z,17.05
2023-04-16T14:16:39.103Z,16.97
2023-04-16T14:19:11.121Z,16.91
2023-04-16T14:21:44.925Z,16.88
2023-04-16T14:24:17.069Z,16.87
2023-04-16T14:26:48.093Z,16.84
2023-04-16T14:29:19.297Z,16.75
2023-04-16T14:31:50.514Z,16.65
2023-04-16T14:34:20.898Z,16.61
2023-04-16T14:36:54.567Z,16.60
2023-04-16T14:39:25.186Z,16.62
2023-04-16T14:41:55.975Z,16.63
2023-04-16T14:44:26.717Z,16.63
2023-04-16T14:47:04.675Z,16.61
2023-04-16T14:49:35.617Z,16.56
2023-04-16T14:52:10.712Z,16.50
2023-04-16T14:54:41.562Z,16.40
2023-04-16T14:57:12.582Z,16.32
2023-04-16T14:59:42.952Z,16.26
2023-04-16T15:02:16.005Z,16.23
2023-04-16T15:04:46.468Z,16.24
2023-04-16T15:07:20.026Z,16.21
2023-04-16T15:09:52.679Z,16.17
2023-04-16T15:12:23.420Z,16.11
2023-04-16T15:14:53.862Z,16.08
2023-04-16T15:17:24.235Z,16.05
2023-04-16T15:19:54.444Z,16.02
2023-04-16T15:22:25.131Z,15.96
2023-04-16T15:24:58.213Z,15.91
2023-04-16T15:27:29.658Z,15.89
2023-04-16T15:30:00.091Z,15.86
2023-04-16T15:32:31.404Z,15.83
2023-04-16T15:35:02.536Z,15.80
2023-04-16T15:37:33.347Z,15.78
2023-04-16T15:40:05.408Z,15.78
2023-04-16T15:42:36.766Z,15.77
2023-04-16T15:45:11.432Z,15.74
2023-04-16T15:47:45.093Z,15.72
2023-04-16T15:50:15.878Z,15.72
2023-04-16T15:52:48.577Z,15.70
2023-04-16T15:55:20.581Z,15.63
2023-04-16T15:57:52.798Z,15.59
2023-04-16T16:00:23.646Z,15.54
2023-04-16T16:02:54.322Z,15.49
2023-04-16T16:05:25.599Z,15.42
2023-04-16T16:07:56.192Z,15.40
2023-04-16T16:10:28.319Z,15.43
2023-04-16T16:13:01.658Z,15.44
2023-04-16T16:15:33.904Z,15.43
2023-04-16T16:18:09.659Z,15.40
2023-04-16T16:20:41.907Z,15.39
2023-04-16T16:23:14.687Z,15.38
2023-04-16T16:25:46.035Z,15.36
2023-04-16T16:28:17.724Z,15.36
2023-04-16T16:30:48.475Z,15.33
2023-04-16T16:33:20.008Z,15.30
2023-04-16T16:35:50.551Z,15.27
2023-04-16T16:38:23.396Z,15.24
2023-04-16T16:40:58.519Z,15.22
2023-04-16T16:43:30.316Z,15.20
2023-04-16T16:46:01.044Z,15.17
2023-04-16T16:48:31.782Z,15.14
2023-04-16T16:51:04.638Z,15.12
2023-04-16T16:53:36.928Z,15.11
2023-04-16T16:56:08.091Z,15.08
2023-04-16T16:58:38.608Z,15.05
2023-04-16T17:01:09.125Z,15.01
2023-04-16T17:03:41.542Z,14.98
2023-04-16T17:06:12.318Z,14.98
2023-04-16T17:08:43.100Z,14.96
2023-04-16T17:11:15.659Z,14.93
2023-04-16T17:13:45.970Z,14.90
2023-04-16T17:16:17.748Z,14.86
2023-04-16T17:18:48.401Z,14.84
2023-04-16T17:21:19.425Z,14.82
2023-04-16T17:23:51.260Z,14.81
2023-04-16T17:26:22.177Z,14.79
2023-04-16T17:28:53.002Z,14.74
2023-04-16T17:31:25.005Z,14.68
2023-04-16T17:33:56.954Z,14.64
2023-04-16T17:36:31.143Z,14.62
2023-04-16T17:39:01.463Z,14.60
2023-04-16T17:41:31.831Z,14.59
2023-04-16T17:44:02.081Z,14.59
2023-04-16T17:46:35.600Z,14.56
2023-04-16T17:49:05.889Z,14.50
2023-04-16T17:51:36.768Z,14.45
2023-04-16T17:54:07.586Z,14.45
2023-04-16T17:56:38.181Z,14.46
2023-04-16T17:59:08.600Z,14.44
2023-04-16T18:01:39.063Z,14.40
2023-04-16T18:04:10.590Z,14.40
2023-04-16T18:06:44.188Z,14.40
2023-04-16T18:09:15.425Z,14.38
2023-04-16T18:11:46.137Z,14.36
2023-04-16T18:14:19.730Z,14.31
2023-04-16T18:16:50.468Z,14.25
2023-04-16T18:19:23.094Z,14.21
2023-04-16T18:21:53.244Z,14.18
2023-04-16T18:24:23.727Z,14.17
2023-04-16T18:26:55.325Z,14.15
2023-04-16T18:29:27.036Z,14.13
2023-04-16T18:31:58.135Z,14.13
2023-04-16T18:34:29.791Z,14.12
2023-04-16T18:37:00.790Z,14.11
2023-04-16T18:39:36.153Z,14.10
2023-04-16T18:42:06.718Z,14.08
2023-04-16T18:44:37.168Z,14.02
2023-04-16T18:47:07.535Z,13.95
2023-04-16T18:49:38.982Z,13.94
2023-04-16T18:52:09.871Z,13.93
2023-04-16T18:54:44.488Z,13.91
2023-04-16T18:57:18.692Z,13.91
2023-04-16T18:59:50.233Z,13.89
2023-04-16T19:02:21.204Z,13.87
2023-04-16T19:04:51.721Z,13.86
2023-04-16T19:07:23.038Z,13.80
2023-04-16T19:09:53.636Z,13.75
2023-04-16T19:12:24.171Z,13.68
2023-04-16T19:14:54.562Z,13.57
2023-04-16T19:17:25.274Z,13.49
2023-04-16T19:19:55.705Z,13.41
2023-04-16T19:22:26.448Z,13.38
2023-04-16T19:24:58.374Z,13.38
2023-04-16T19:27:33.462Z,13.39
2023-04-16T19:30:10.549Z,13.40
2023-04-16T19:32:41.576Z,13.43
2023-04-16T19:35:13.355Z,13.46
2023-04-16T19:37:45.829Z,13.46
2023-04-16T19:40:16.693Z,13.45
2023-04-16T19:42:47.163Z,13.44
2023-04-16T19:45:18.223Z,13.45
2023-04-16T19:47:50.807Z,13.44
2023-04-16T19:50:21.282Z,13.46
2023-04-16T19:52:57.658Z,13.47
2023-04-16T19:55:28.183Z,13.45
2023-04-16T19:57:59.662Z,13.43
2023-04-16T20:00:30.033Z,13.42
2023-04-16T20:03:00.445Z,13.43
2023-04-16T20:05:33.292Z,13.45
2023-04-16T20:08:03.712Z,13.49
2023-04-16T20:10:33.917Z,13.52
2023-04-16T20:13:06.603Z,13.51
2023-04-16T20:15:37.999Z,13.49
2023-04-16T20:18:09.225Z,13.45
2023-04-16T20:20:39.575Z,13.47
2023-04-16T20:23:17.685Z,13.47
2023-04-16T20:25:50.073Z,13.47
2023-04-16T20:28:21.168Z,13.47
2023-04-16T20:30:52.168Z,13.48
2023-04-16T20:33:22.844Z,13.50
2023-04-16T20:35:54.349Z,13.52
2023-04-16T20:38:25.160Z,13.50
2023-04-16T20:41:06.114Z,13.49
2023-04-16T20:43:38.602Z,13.47
2023-04-16T20:46:09.851Z,13.45
2023-04-16T20:48:41.362Z,13.44
2023-04-16T20:51:14.363Z,13.44
2023-04-16T20:53:45.374Z,13.42
2023-04-16T20:56:15.547Z,13.42
2023-04-16T20:58:46.478Z,13.42
2023-04-16T21:01:19.133Z,13.38
2023-04-16T21:03:51.356Z,13.30
2023-04-16T21:06:22.374Z,13.19
2023-04-16T21:08:52.855Z,13.08
2023-04-16T21:11:23.183Z,13.07
2023-04-16T21:13:53.425Z,13.11
2023-04-16T21:16:24.428Z,13.15
2023-04-16T21:18:54.552Z,13.20
2023-04-16T21:21:25.643Z,13.24
2023-04-16T21:23:55.901Z,13.23
2023-04-16T21:26:26.565Z,13.18
2023-04-16T21:28:57.229Z,13.14
2023-04-16T21:31:27.979Z,13.11
2023-04-16T21:33:58.309Z,13.06
2023-04-16T21:36:29.019Z,13.02
2023-04-16T21:38:59.181Z,13.02
2023-04-16T21:41:29.581Z,13.00
2023-04-16T21:43:59.903Z,12.99
2023-04-16T21:46:30.240Z,12.98
2023-04-16T21:49:00.753Z,12.97
2023-04-16T21:51:31.610Z,12.94
2023-04-16T21:54:02.452Z,12.90
2023-04-16T21:56:32.739Z,12.87
2023-04-16T21:59:03.577Z,12.82
2023-04-16T22:01:35.251Z,12.76
2023-04-16T22:04:07.302Z,12.74
2023-04-16T22:06:37.696Z,12.74
2023-04-16T22:09:09.738Z,12.75
2023-04-16T22:11:40.542Z,12.75
2023-04-16T22:14:10.872Z,12.71
2023-04-16T22:16:41.708Z,12.67
2023-04-16T22:19:13.350Z,12.62
2023-04-16T22:21:44.096Z,12.59
2023-04-16T22:24:14.971Z,12.58
2023-04-16T22:26:45.401Z,12.49
2023-04-16T22:29:16.160Z,12.44
2023-04-16T22:31:46.700Z,12.39
2023-04-16T22:34:17.085Z,12.35
2023-04-16T22:36:48.002Z,12.33
2023-04-16T22:39:18.519Z,12.31
2023-04-16T22:41:49.903Z,12.27
2023-04-16T22:44:22.683Z,12.23
2023-04-16T22:46:53.395Z,12.23
2023-04-16T22:49:24.558Z,12.26
2023-04-16T22:51:54.755Z,12.29
2023-04-16T22:54:29.823Z,12.33
2023-04-16T22:57:00.699Z,12.35
2023-04-16T22:59:31.813Z,12.36
2023-04-16T23:02:02.646Z,12.35
2023-04-16T23:04:33.364Z,12.34
2023-04-16T23:07:03.623Z,12.35
2023-04-16T23:09:34.058Z,12.35
2023-04-16T23:12:04.538Z,12.29
2023-04-16T23:14:34.754Z,12.26
2023-04-16T23:17:05.487Z,12.20
2023-04-16T23:19:37.124Z,12.17
2023-04-16T23:22:07.376Z,12.11
2023-04-16T23:24:37.673Z,12.09
2023-04-16T23:27:08.549Z,12.06
2023-04-16T23:29:38.759Z,12.05
2023-04-16T23:32:09.293Z,12.03
2023-04-16T23:34:39.764Z,12.02
2023-04-16T23:37:10.514Z,12.01
2023-04-16T23:39:40.724Z,11.99
2023-04-16T23:42:11.315Z,12.00
2023-04-16T23:44:41.648Z,11.99
2023-04-16T23:47:12.427Z,11.98
2023-04-16T23:49:42.948Z,11.95
2023-04-16T23:52:14.793Z,11.91
2023-04-16T23:54:45.239Z,11.90
2023-04-16T23:57:15.531Z,11.89
2023-04-16T23:59:48.904Z,11.90
